Sagar Kanya — VTJR — position and weather

sailwx.info

Track history (hours):
 
Tides and Currents Weather Stations Pressure Air Temp Water Temp Dewpoint Dewpoint Depression Visibility Wind Speed Wind Dir Waves Ship Positions

Oceanographic research ship Sagar Kanya (India)

Detailed information on ship capabilities available from University of Delaware's Ocean Information Center.

Last reported at 2019-Feb-20 09:03 UTC. Time now 2019-Feb-23 17:45 UTC.
Position N 17°42' E 083°18'.

Type: Other ship. MMSI: 419320000.

Wind from 170 at 2 knots

Barometer 1015.1 mb
Air temperature 30.4 ° C

Date/timePositionNaut miles runAvg speedWind from/ knotsBaromVisibWave heightAir tempDewpointWater temp
2019-Feb-20 09:03N 17°42' E 083°18'0 0.0 170 / 21015.1 30.4
2019-Feb-20 06:03N 17°42' E 083°18'0 0.0 120 / 61017.9 28.2
2019-Feb-20 02:33N 17°42' E 083°18'0 0.0 120 1018.3 26.4
2019-Feb-20 00:03N 17°42' E 083°18'0 0.0 280 1016.1 24.0
2019-Feb-19 21:03N 17°42' E 083°18'0 0.0 200 / 21015.9 24.8
2019-Feb-19 18:03N 17°42' E 083°18'0 0.0 240 / 21016.9 25.6
2019-Feb-19 15:03N 17°42' E 083°18'0 0.0 230 1016.5 26.4
2019-Feb-19 12:03N 17°42' E 083°18'0 0.0 180 / 61013.9 27.0
2019-Feb-19 09:03N 17°42' E 083°18'0 0.0 180 / 121013.2 27.4
2019-Feb-19 06:03N 17°42' E 083°18'0 0.0 170 / 81015.3 28.0
2019-Feb-19 03:03N 17°42' E 083°18'0 0.0 320 / 21014.9 26.8
2019-Feb-19 00:03N 17°42' E 083°18'0 0.0 260 / 41011.7 25.7
2019-Feb-18 18:03N 17°42' E 083°18'0 0.0 230 / 41013.0 26.2
2019-Feb-18 14:33N 17°42' E 083°18'0 0.0 260 / 41012.2 26.3
2019-Feb-18 12:03N 17°42' E 083°18'0 0.0 230 / 21009.9 26.8
2019-Feb-18 06:03N 17°42' E 083°18'0 0.0 150 / 101014.0 27.6
2019-Feb-18 03:03N 17°42' E 083°18'0 0.0 320 / 21013.9 27.5
2019-Feb-18 00:03N 17°42' E 083°18'0 0.0 220 / 21011.2 24.9
2019-Feb-17 21:03N 17°42' E 083°18'0 0.0 270 1010.5 25.3
2019-Feb-17 18:03N 17°42' E 083°18'0 0.0 240 / 21012.1 25.8
2019-Feb-17 14:33N 17°42' E 083°18'0 0.0 170 / 21011.8 26.1
2019-Feb-17 12:03N 17°42' E 083°18'0 0.0 240 / 21010.0 27.4
2019-Feb-17 09:03N 17°42' E 083°18'0 0.0 160 / 81010.7 28.3
2019-Feb-17 06:03N 17°42' E 083°18'0 0.0 190 / 121014.4 27.9
2019-Feb-17 00:03N 17°42' E 083°18'0 0.0 280 / 21013.7 23.7
2019-Feb-16 18:03N 17°42' E 083°18'0 0.0 150 / 41015.9 25.3
2019-Feb-16 14:33N 17°42' E 083°18'0 0.0 100 / 61015.2 25.3
2019-Feb-16 12:03N 17°42' E 083°18'0 0.0 060 / 61013.8 25.3
2019-Feb-16 09:03N 17°42' E 083°18'0 0.0 060 / 81014.8 25.6
2019-Feb-16 06:03N 17°42' E 083°18'0 0.0 050 / 61018.0 26.1
2019-Feb-16 03:03N 17°42' E 083°18'0 0.0 220 / 21017.7 25.9
2019-Feb-15 23:33N 17°42' E 083°18'0 0.0 260 1014.7 22.5
2019-Feb-15 21:03N 17°42' E 083°18'0 0.0 220 / 21014.5 22.4
2019-Feb-15 18:03N 17°42' E 083°18'0 0.0 200 / 21016.5 23.1
2019-Feb-15 15:03N 17°42' E 083°18'0 0.0 030 1016.0 24.6
2019-Feb-15 11:33N 17°42' E 083°18'0 0.0 140 / 61014.0 26.0
2019-Feb-15 09:03N 17°42' E 083°18'0 0.0 100 / 81014.4 25.7
2019-Feb-14 21:03N 17°42' E 083°18'0 0.0 260 1015.4 21.8
2019-Feb-14 17:33N 17°42' E 083°18'0 0.0 200 / 21017.0 23.1
2019-Feb-14 15:03N 17°42' E 083°18'0 0.0 180 / 21016.7 23.8
2019-Feb-14 12:03N 17°42' E 083°18'0 0.0 100 / 61014.3 25.6
2019-Feb-14 09:03N 17°42' E 083°18'   100 / 81014.3 26.9
Track history (hours):
 
Tides and Currents Weather Stations Pressure Air Temp Water Temp Dewpoint Dewpoint Depression Visibility Wind Speed Wind Dir Waves Ship Positions

Oceanographic research ship Sagar Kanya (India)

Detailed information on ship capabilities available from University of Delaware's Ocean Information Center.

Last reported at 2019-Feb-20 09:03 UTC. Time now 2019-Feb-23 17:45 UTC.
Position N 17°42' E 083°18'.

Type: Other ship. MMSI: 419320000.

Wind from 170 at 2 knots

Barometer 1015.1 mb
Air temperature 30.4 ° C

Date/timePositionNaut miles runAvg speedWind from/ knotsBaromVisibWave heightAir tempDewpointWater temp
2019-Feb-20 09:03N 17°42' E 083°18'0 0.0 170 / 21015.1 30.4
2019-Feb-20 06:03N 17°42' E 083°18'0 0.0 120 / 61017.9 28.2
2019-Feb-20 02:33N 17°42' E 083°18'0 0.0 120 1018.3 26.4
2019-Feb-20 00:03N 17°42' E 083°18'0 0.0 280 1016.1 24.0
2019-Feb-19 21:03N 17°42' E 083°18'0 0.0 200 / 21015.9 24.8
2019-Feb-19 18:03N 17°42' E 083°18'0 0.0 240 / 21016.9 25.6
2019-Feb-19 15:03N 17°42' E 083°18'0 0.0 230 1016.5 26.4
2019-Feb-19 12:03N 17°42' E 083°18'0 0.0 180 / 61013.9 27.0
2019-Feb-19 09:03N 17°42' E 083°18'0 0.0 180 / 121013.2 27.4
2019-Feb-19 06:03N 17°42' E 083°18'0 0.0 170 / 81015.3 28.0
2019-Feb-19 03:03N 17°42' E 083°18'0 0.0 320 / 21014.9 26.8
2019-Feb-19 00:03N 17°42' E 083°18'0 0.0 260 / 41011.7 25.7
2019-Feb-18 18:03N 17°42' E 083°18'0 0.0 230 / 41013.0 26.2
2019-Feb-18 14:33N 17°42' E 083°18'0 0.0 260 / 41012.2 26.3
2019-Feb-18 12:03N 17°42' E 083°18'0 0.0 230 / 21009.9 26.8
2019-Feb-18 06:03N 17°42' E 083°18'0 0.0 150 / 101014.0 27.6
2019-Feb-18 03:03N 17°42' E 083°18'0 0.0 320 / 21013.9 27.5
2019-Feb-18 00:03N 17°42' E 083°18'0 0.0 220 / 21011.2 24.9
2019-Feb-17 21:03N 17°42' E 083°18'0 0.0 270 1010.5 25.3
2019-Feb-17 18:03N 17°42' E 083°18'0 0.0 240 / 21012.1 25.8
2019-Feb-17 14:33N 17°42' E 083°18'0 0.0 170 / 21011.8 26.1
2019-Feb-17 12:03N 17°42' E 083°18'0 0.0 240 / 21010.0 27.4
2019-Feb-17 09:03N 17°42' E 083°18'0 0.0 160 / 81010.7 28.3
2019-Feb-17 06:03N 17°42' E 083°18'0 0.0 190 / 121014.4 27.9
2019-Feb-17 00:03N 17°42' E 083°18'0 0.0 280 / 21013.7 23.7
2019-Feb-16 18:03N 17°42' E 083°18'0 0.0 150 / 41015.9 25.3
2019-Feb-16 14:33N 17°42' E 083°18'0 0.0 100 / 61015.2 25.3
2019-Feb-16 12:03N 17°42' E 083°18'0 0.0 060 / 61013.8 25.3
2019-Feb-16 09:03N 17°42' E 083°18'0 0.0 060 / 81014.8 25.6
2019-Feb-16 06:03N 17°42' E 083°18'0 0.0 050 / 61018.0 26.1
2019-Feb-16 03:03N 17°42' E 083°18'0 0.0 220 / 21017.7 25.9
2019-Feb-15 23:33N 17°42' E 083°18'0 0.0 260 1014.7 22.5
2019-Feb-15 21:03N 17°42' E 083°18'0 0.0 220 / 21014.5 22.4
2019-Feb-15 18:03N 17°42' E 083°18'0 0.0 200 / 21016.5 23.1
2019-Feb-15 15:03N 17°42' E 083°18'0 0.0 030 1016.0 24.6
2019-Feb-15 11:33N 17°42' E 083°18'0 0.0 140 / 61014.0 26.0
2019-Feb-15 09:03N 17°42' E 083°18'0 0.0 100 / 81014.4 25.7
2019-Feb-14 21:03N 17°42' E 083°18'0 0.0 260 1015.4 21.8
2019-Feb-14 17:33N 17°42' E 083°18'0 0.0 200 / 21017.0 23.1
2019-Feb-14 15:03N 17°42' E 083°18'0 0.0 180 / 21016.7 23.8
2019-Feb-14 12:03N 17°42' E 083°18'0 0.0 100 / 61014.3 25.6
2019-Feb-14 09:03N 17°42' E 083°18'   100 / 81014.3 26.9

Dump ship's entire track history